Time,TemperatureF,DewpointF,PressureIn,WindDirection,WindDirectionDegrees,WindSpeedMPH,WindSpeedGustMPH,Humidity,HourlyPrecipIn,Conditions,Clouds,dailyrainin,SoftwareType,DateUTC
2013-03-28 00:01:00,42.8,7.5,29.94,North,360,0.0,0.0,23,0.00,,,0.00,WSDL version 420,2013-03-28 05:01:00,
2013-03-28 00:07:00,42.3,7.1,29.94,North,360,0.0,0.0,23,0.00,,,0.00,WSDL version 420,2013-03-28 05:07:00,
2013-03-28 00:13:00,42.7,7.4,29.94,North,360,0.0,0.0,23,0.00,,,0.00,WSDL version 420,2013-03-28 05:13:00,
2013-03-28 00:19:00,42.6,7.4,29.94,North,360,0.0,0.0,23,0.00,,,0.00,WSDL version 420,2013-03-28 05:19:00,
2013-03-28 00:25:00,42.1,7.0,29.94,North,360,0.0,0.0,23,0.00,,,0.00,WSDL version 420,2013-03-28 05:25:00,
2013-03-28 00:31:00,42.2,7.1,29.94,North,360,0.0,0.0,23,0.00,,,0.00,WSDL version 420,2013-03-28 05:31:00,
2013-03-28 00:37:00,42.4,7.2,29.94,North,360,0.0,0.0,23,0.00,,,0.00,WSDL version 420,2013-03-28 05:37:00,
2013-03-28 00:43:00,42.4,7.2,29.94,North,360,0.0,0.0,23,0.00,,,0.00,WSDL version 420,2013-03-28 05:43:00,
2013-03-28 00:49:00,42.4,7.2,29.94,North,360,0.0,0.0,23,0.00,,,0.00,WSDL version 420,2013-03-28 05:49:00,
2013-03-28 00:55:00,42.4,7.2,29.94,North,360,0.0,0.0,23,0.00,,,0.00,WSDL version 420,2013-03-28 05:55:00,
2013-03-28 01:01:00,42.4,7.2,29.94,North,360,0.0,0.0,23,0.00,,,0.00,WSDL version 420,2013-03-28 06:01:00,
2013-03-28 01:07:00,42.4,7.2,29.94,North,360,0.0,0.0,23,0.00,,,0.00,WSDL version 420,2013-03-28 06:07:00,
2013-03-28 01:13:00,42.2,7.0,29.94,North,360,0.0,0.0,23,0.00,,,0.00,WSDL version 420,2013-03-28 06:13:00,
2013-03-28 01:19:00,41.4,6.4,29.94,North,360,0.0,0.0,23,0.00,,,0.00,WSDL version 420,2013-03-28 06:19:00,
2013-03-28 01:25:00,41.5,9.2,29.94,North,360,0.0,0.0,26,0.00,,,0.00,WSDL version 420,2013-03-28 06:25:00,
2013-03-28 01:33:00,41.5,9.2,29.94,North,360,0.0,0.0,26,0.00,,,0.00,WSDL version 420,2013-03-28 06:33:00,
2013-03-28 01:39:00,41.4,9.0,29.94,North,360,0.0,0.0,26,0.00,,,0.00,WSDL version 420,2013-03-28 06:39:00,
2013-03-28 01:45:00,41.4,9.0,29.94,North,360,0.0,0.0,26,0.00,,,0.00,WSDL version 420,2013-03-28 06:45:00,
2013-03-28 01:51:00,41.1,8.9,29.94,North,360,0.0,0.0,26,0.00,,,0.00,WSDL version 420,2013-03-28 06:51:00,
2013-03-28 01:57:00,40.5,8.3,29.94,North,360,0.0,0.0,26,0.00,,,0.00,WSDL version 420,2013-03-28 06:57:00,
2013-03-28 02:03:00,40.7,9.3,29.94,North,360,0.0,0.0,28,0.00,,,0.00,WSDL version 420,2013-03-28 07:03:00,
2013-03-28 02:09:00,40.9,8.9,29.94,North,360,0.0,0.0,26,0.00,,,0.00,WSDL version 420,2013-03-28 07:09:00,
2013-03-28 02:15:00,40.5,8.9,29.91,North,360,0.0,0.0,28,0.00,,,0.00,WSDL version 420,2013-03-28 07:15:00,
2013-03-28 02:21:00,40.2,9.3,29.91,North,360,0.0,0.0,28,0.00,,,0.00,WSDL version 420,2013-03-28 07:21:00,
2013-03-28 02:27:00,39.9,9.2,29.91,North,360,0.0,0.0,28,0.00,,,0.00,WSDL version 420,2013-03-28 07:27:00,
2013-03-28 02:33:00,40.0,9.5,29.91,North,360,0.0,0.0,28,0.00,,,0.00,WSDL version 420,2013-03-28 07:33:00,
2013-03-28 02:39:00,40.1,9.6,29.91,North,360,0.0,0.0,28,0.00,,,0.00,WSDL version 420,2013-03-28 07:39:00,
2013-03-28 02:45:00,40.1,9.6,29.91,North,360,0.0,0.0,28,0.00,,,0.00,WSDL version 420,2013-03-28 07:45:00,
2013-03-28 02:51:00,39.9,9.4,29.91,North,360,0.0,0.0,28,0.00,,,0.00,WSDL version 420,2013-03-28 07:51:00,
2013-03-28 02:57:00,39.9,9.4,29.91,North,360,0.0,0.0,28,0.00,,,0.00,WSDL version 420,2013-03-28 07:57:00,
2013-03-28 03:03:00,39.7,9.3,29.91,North,360,0.0,0.0,28,0.00,,,0.00,WSDL version 420,2013-03-28 08:03:00,
2013-03-28 03:09:00,39.2,9.0,29.91,North,360,0.0,0.0,29,0.00,,,0.00,WSDL version 420,2013-03-28 08:09:00,
2013-03-28 03:15:00,39.4,9.8,29.91,North,360,0.0,0.0,29,0.00,,,0.00,WSDL version 420,2013-03-28 08:15:00,
2013-03-28 03:21:00,39.6,9.9,29.91,North,360,0.0,0.0,29,0.00,,,0.00,WSDL version 420,2013-03-28 08:21:00,
2013-03-28 03:27:00,39.6,9.9,29.91,North,360,0.0,0.0,29,0.00,,,0.00,WSDL version 420,2013-03-28 08:27:00,
2013-03-28 03:33:00,39.4,9.8,29.91,North,360,0.0,0.0,29,0.00,,,0.00,WSDL version 420,2013-03-28 08:33:00,
2013-03-28 03:39:00,39.0,9.4,29.91,North,360,0.0,0.0,29,0.00,,,0.00,WSDL version 420,2013-03-28 08:39:00,
2013-03-28 03:45:00,38.8,9.3,29.91,North,360,0.0,0.0,29,0.00,,,0.00,WSDL version 420,2013-03-28 08:45:00,
2013-03-28 03:51:00,39.0,9.4,29.91,North,360,0.0,0.0,29,0.00,,,0.00,WSDL version 420,2013-03-28 08:51:00,
2013-03-28 03:57:00,38.6,9.1,29.91,North,360,0.0,0.0,29,0.00,,,0.00,WSDL version 420,2013-03-28 08:57:00,
2013-03-28 04:03:00,38.4,8.9,29.91,North,360,0.0,0.0,29,0.00,,,0.00,WSDL version 420,2013-03-28 09:03:00,
2013-03-28 04:09:00,38.3,8.9,29.91,North,360,0.0,0.0,29,0.00,,,0.00,WSDL version 420,2013-03-28 09:09:00,
2013-03-28 04:15:00,38.0,9.0,29.88,North,360,0.0,0.0,30,0.00,,,0.00,WSDL version 420,2013-03-28 09:15:00,
2013-03-28 04:21:00,37.4,8.8,29.88,North,360,0.0,0.0,30,0.00,,,0.00,WSDL version 420,2013-03-28 09:21:00,
2013-03-28 04:27:00,37.4,8.8,29.91,North,360,0.0,0.0,30,0.00,,,0.00,WSDL version 420,2013-03-28 09:27:00,
2013-03-28 04:33:00,37.4,8.8,29.91,North,360,0.0,0.0,30,0.00,,,0.00,WSDL version 420,2013-03-28 09:33:00,
2013-03-28 04:39:00,37.2,9.0,29.91,North,360,0.0,0.0,31,0.00,,,0.00,WSDL version 420,2013-03-28 09:39:00,
2013-03-28 04:45:00,37.2,9.3,29.88,North,360,0.0,0.0,31,0.00,,,0.00,WSDL version 420,2013-03-28 09:45:00,
2013-03-28 04:51:00,37.4,8.9,29.88,North,360,0.0,0.0,30,0.00,,,0.00,WSDL version 420,2013-03-28 09:51:00,
2013-03-28 04:57:00,37.4,8.8,29.91,North,360,0.0,0.0,30,0.00,,,0.00,WSDL version 420,2013-03-28 09:57:00,
2013-03-28 05:03:00,37.4,8.8,29.91,North,360,0.0,0.0,30,0.00,,,0.00,WSDL version 420,2013-03-28 10:03:00,
2013-03-28 05:09:00,37.1,9.1,29.91,North,360,0.0,0.0,31,0.00,,,0.00,WSDL version 420,2013-03-28 10:09:00,
2013-03-28 05:15:00,37.0,9.1,29.88,North,360,0.0,0.0,31,0.00,,,0.00,WSDL version 420,2013-03-28 10:15:00,
2013-03-28 05:21:00,37.0,9.1,29.88,North,360,0.0,0.0,31,0.00,,,0.00,WSDL version 420,2013-03-28 10:21:00,
2013-03-28 05:27:00,36.9,9.1,29.88,North,360,0.0,0.0,31,0.00,,,0.00,WSDL version 420,2013-03-28 10:27:00,
2013-03-28 05:33:00,36.9,9.1,29.88,North,360,0.0,0.0,31,0.00,,,0.00,WSDL version 420,2013-03-28 10:33:00,
2013-03-28 05:39:00,36.7,9.2,29.88,North,360,0.0,0.0,31,0.00,,,0.00,WSDL version 420,2013-03-28 10:39:00,
2013-03-28 05:45:00,36.2,8.6,29.91,North,360,0.0,0.0,32,0.00,,,0.00,WSDL version 420,2013-03-28 10:45:00,
2013-03-28 05:51:00,36.2,8.8,29.91,North,360,0.0,0.0,31,0.00,,,0.00,WSDL version 420,2013-03-28 10:51:00,
2013-03-28 05:57:00,35.9,8.9,29.88,North,360,0.0,0.0,32,0.00,,,0.00,WSDL version 420,2013-03-28 10:57:00,
2013-03-28 06:03:00,36.2,9.1,29.88,North,360,0.0,0.0,32,0.00,,,0.00,WSDL version 420,2013-03-28 11:03:00,
2013-03-28 06:09:00,36.3,9.3,29.88,North,360,0.0,0.0,32,0.00,,,0.00,WSDL version 420,2013-03-28 11:09:00,
2013-03-28 06:15:00,36.5,9.4,29.91,East,90,0.9,2.2,32,0.00,,,0.00,WSDL version 420,2013-03-28 11:15:00,
2013-03-28 06:21:00,36.4,9.3,29.91,East,90,0.0,2.2,32,0.00,,,0.00,WSDL version 420,2013-03-28 11:21:00,
2013-03-28 06:27:00,36.3,9.3,29.91,East,90,1.1,2.5,32,0.00,,,0.00,WSDL version 420,2013-03-28 11:27:00,
2013-03-28 06:33:00,36.2,9.8,29.91,East,90,0.0,2.5,33,0.00,,,0.00,WSDL version 420,2013-03-28 11:33:00,
2013-03-28 06:39:00,36.3,10.1,29.91,East,90,0.0,0.0,34,0.00,,,0.00,WSDL version 420,2013-03-28 11:39:00,
2013-03-28 06:45:00,36.3,10.1,29.88,East,90,0.0,0.0,33,0.00,,,0.00,WSDL version 420,2013-03-28 11:45:00,
2013-03-28 06:51:00,36.3,10.4,29.88,East,90,0.0,0.0,34,0.00,,,0.00,WSDL version 420,2013-03-28 11:51:00,
2013-03-28 06:57:00,36.5,10.8,29.91,East,90,0.0,0.0,34,0.00,,,0.00,WSDL version 420,2013-03-28 11:57:00,
2013-03-28 07:03:00,36.5,10.8,29.91,East,90,0.0,0.0,34,0.00,,,0.00,WSDL version 420,2013-03-28 12:03:00,
2013-03-28 07:09:00,36.7,10.9,29.91,East,90,0.0,0.0,34,0.00,,,0.00,WSDL version 420,2013-03-28 12:09:00,
2013-03-28 07:15:00,36.7,10.9,29.91,East,90,0.0,0.0,34,0.00,,,0.00,WSDL version 420,2013-03-28 12:15:00,
2013-03-28 07:21:00,36.4,11.2,29.91,East,90,0.0,0.0,35,0.00,,,0.00,WSDL version 420,2013-03-28 12:21:00,
2013-03-28 07:27:00,36.3,11.4,29.91,East,90,0.0,0.0,36,0.00,,,0.00,WSDL version 420,2013-03-28 12:27:00,
2013-03-28 07:33:00,36.4,11.4,29.91,East,90,0.0,0.0,36,0.00,,,0.00,WSDL version 420,2013-03-28 12:33:00,
2013-03-28 07:39:00,36.7,12.2,29.91,East,90,0.0,0.0,36,0.00,,,0.00,WSDL version 420,2013-03-28 12:39:00,
2013-03-28 07:45:00,36.7,13.2,29.91,East,90,0.0,0.0,38,0.00,,,0.00,WSDL version 420,2013-03-28 12:45:00,
2013-03-28 07:51:00,36.7,12.9,29.91,East,90,0.0,0.0,37,0.00,,,0.00,WSDL version 420,2013-03-28 12:51:00,
2013-03-28 07:57:00,37.0,13.0,29.91,East,90,0.0,0.0,37,0.00,,,0.00,WSDL version 420,2013-03-28 12:57:00,
2013-03-28 08:03:00,37.3,13.1,29.91,East,90,1.3,1.6,36,0.00,,,0.00,WSDL version 420,2013-03-28 13:03:00,
2013-03-28 08:09:00,37.6,13.3,29.91,East,90,0.0,1.6,36,0.00,,,0.00,WSDL version 420,2013-03-28 13:09:00,
2013-03-28 08:15:00,38.0,13.4,29.91,East,90,0.0,0.0,36,0.00,,,0.00,WSDL version 420,2013-03-28 13:15:00,
2013-03-28 08:21:00,38.4,13.5,29.91,East,90,1.2,2.0,35,0.00,,,0.00,WSDL version 420,2013-03-28 13:21:00,
2013-03-28 08:27:00,38.8,14.1,29.94,East,90,0.9,2.0,36,0.00,,,0.00,WSDL version 420,2013-03-28 13:27:00,
2013-03-28 08:33:00,39.3,15.6,29.94,East,90,0.0,1.1,39,0.00,,,0.00,WSDL version 420,2013-03-28 13:33:00,
2013-03-28 08:39:00,40.0,16.4,29.94,East,90,0.0,1.3,38,0.00,,,0.00,WSDL version 420,2013-03-28 13:39:00,
2013-03-28 08:45:00,40.8,17.2,29.94,East,90,0.0,1.3,38,0.00,,,0.00,WSDL version 420,2013-03-28 13:45:00,
2013-03-28 08:51:00,42.0,17.7,29.94,East,90,0.0,1.1,37,0.00,,,0.00,WSDL version 420,2013-03-28 13:51:00,
2013-03-28 08:57:00,43.3,17.4,29.94,East,90,1.3,2.5,35,0.00,,,0.00,WSDL version 420,2013-03-28 13:57:00,
2013-03-28 09:03:00,44.4,16.9,29.94,SE,135,2.2,3.1,32,0.00,,,0.00,WSDL version 420,2013-03-28 14:03:00,
2013-03-28 09:09:00,45.5,16.0,29.94,SSE,158,3.6,4.3,30,0.00,,,0.00,WSDL version 420,2013-03-28 14:09:00,
2013-03-28 09:15:00,46.4,15.4,29.94,East,81,2.3,4.3,28,0.00,,,0.00,WSDL version 420,2013-03-28 14:15:00,
2013-03-28 09:21:00,47.4,15.8,29.94,SE,135,1.1,4.3,27,0.00,,,0.00,WSDL version 420,2013-03-28 14:21:00,
2013-03-28 09:27:00,48.2,15.8,29.94,East,98,2.7,4.0,27,0.00,,,0.00,WSDL version 420,2013-03-28 14:27:00,
2013-03-28 09:33:00,49.2,15.8,29.94,East,90,2.4,4.9,26,0.00,,,0.00,WSDL version 420,2013-03-28 14:33:00,
2013-03-28 09:39:00,49.9,16.1,29.94,SE,146,4.2,4.9,24,0.00,,,0.00,WSDL version 420,2013-03-28 14:39:00,
2013-03-28 09:45:00,50.3,14.9,29.94,SE,135,3.7,6.0,24,0.00,,,0.00,WSDL version 420,2013-03-28 14:45:00,
2013-03-28 09:51:00,51.0,15.4,29.94,SSE,158,3.2,6.3,24,0.00,,,0.00,WSDL version 420,2013-03-28 14:51:00,
2013-03-28 09:58:00,51.9,15.2,29.94,East,101,1.5,4.7,22,0.00,,,0.00,WSDL version 420,2013-03-28 14:58:00,
2013-03-28 10:04:00,52.8,13.9,29.94,ESE,109,2.7,3.6,21,0.00,,,0.00,WSDL version 420,2013-03-28 15:04:00,
2013-03-28 10:10:00,53.7,13.8,29.94,SE,135,2.7,6.3,20,0.00,,,0.00,WSDL version 420,2013-03-28 15:10:00,
2013-03-28 10:16:00,54.2,14.0,29.94,SE,127,3.1,6.3,20,0.00,,,0.00,WSDL version 420,2013-03-28 15:16:00,
2013-03-28 10:22:00,54.8,14.5,29.94,SE,143,3.1,7.4,20,0.00,,,0.00,WSDL version 420,2013-03-28 15:22:00,
2013-03-28 10:28:00,55.5,15.1,29.94,SE,131,2.9,6.3,20,0.00,,,0.00,WSDL version 420,2013-03-28 15:28:00,
2013-03-28 10:34:00,56.0,15.5,29.94,SSW,203,4.3,7.6,20,0.00,,,0.00,WSDL version 420,2013-03-28 15:34:00,
2013-03-28 10:40:00,56.1,15.6,29.94,South,169,5.3,8.1,20,0.00,,,0.00,WSDL version 420,2013-03-28 15:40:00,
2013-03-28 10:46:00,56.6,16.0,29.94,SSE,150,1.7,8.1,20,0.00,,,0.00,WSDL version 420,2013-03-28 15:46:00,
2013-03-28 10:52:00,57.7,15.7,29.94,South,180,2.5,3.8,19,0.00,,,0.00,WSDL version 420,2013-03-28 15:52:00,
2013-03-28 10:58:00,58.1,16.0,29.94,SE,138,3.9,7.6,19,0.00,,,0.00,WSDL version 420,2013-03-28 15:58:00,
2013-03-28 11:04:00,58.7,16.6,29.94,East,96,2.3,7.6,19,0.00,,,0.00,WSDL version 420,2013-03-28 16:04:00,
2013-03-28 11:10:00,59.7,17.4,29.94,SSE,158,3.1,4.3,19,0.00,,,0.00,WSDL version 420,2013-03-28 16:10:00,
2013-03-28 11:16:00,60.5,18.0,29.94,SSE,158,4.8,6.0,19,0.00,,,0.00,WSDL version 420,2013-03-28 16:16:00,
2013-03-28 11:22:00,60.7,16.7,29.94,South,180,2.9,6.0,17,0.00,,,0.00,WSDL version 420,2013-03-28 16:22:00,
2013-03-28 11:28:00,61.0,14.5,29.94,WSW,248,2.5,5.4,16,0.00,,,0.00,WSDL version 420,2013-03-28 16:28:00,
2013-03-28 11:34:00,61.7,15.1,29.94,WSW,255,3.7,5.4,16,0.00,,,0.00,WSDL version 420,2013-03-28 16:34:00,
2013-03-28 11:40:00,62.0,15.3,29.94,SSE,158,2.1,9.8,16,0.00,,,0.00,WSDL version 420,2013-03-28 16:40:00,
2013-03-28 11:46:00,62.5,15.7,29.94,South,180,4.0,9.8,16,0.00,,,0.00,WSDL version 420,2013-03-28 16:46:00,
2013-03-28 11:52:00,63.1,16.2,29.94,SSE,158,3.0,7.6,16,0.00,,,0.00,WSDL version 420,2013-03-28 16:52:00,
2013-03-28 11:58:00,63.8,16.7,29.94,SSE,152,3.8,8.5,16,0.00,,,0.00,WSDL version 420,2013-03-28 16:58:00,
2013-03-28 12:04:00,65.0,16.2,29.94,SSE,158,4.7,7.4,15,0.00,,,0.00,WSDL version 420,2013-03-28 17:04:00,
2013-03-28 12:10:00,64.6,16.1,29.94,SW,221,3.0,7.4,16,0.00,,,0.00,WSDL version 420,2013-03-28 17:10:00,
2013-03-28 12:16:00,63.7,16.7,29.91,West,270,4.1,6.5,16,0.00,,,0.00,WSDL version 420,2013-03-28 17:16:00,
2013-03-28 12:22:00,64.3,16.3,29.91,SE,124,2.7,5.6,15,0.00,,,0.00,WSDL version 420,2013-03-28 17:22:00,
2013-03-28 12:28:00,65.1,16.3,29.91,SW,225,2.0,5.8,15,0.00,,,0.00,WSDL version 420,2013-03-28 17:28:00,
2013-03-28 12:34:00,64.7,16.0,29.91,SW,236,2.7,5.8,15,0.00,,,0.00,WSDL version 420,2013-03-28 17:34:00,
2013-03-28 12:40:00,64.9,16.1,29.91,South,173,3.6,6.0,15,0.00,,,0.00,WSDL version 420,2013-03-28 17:40:00,
2013-03-28 12:46:00,65.5,16.6,29.91,West,270,0.0,6.0,15,0.00,,,0.00,WSDL version 420,2013-03-28 17:46:00,
2013-03-28 12:52:00,65.8,16.9,29.91,West,270,3.1,6.0,15,0.00,,,0.00,WSDL version 420,2013-03-28 17:52:00,
2013-03-28 12:58:00,65.7,16.8,29.91,SSW,212,3.2,5.8,15,0.00,,,0.00,WSDL version 420,2013-03-28 17:58:00,
2013-03-28 13:04:00,65.7,16.8,29.91,SE,143,2.2,5.4,15,0.00,,,0.00,WSDL version 420,2013-03-28 18:04:00,
2013-03-28 13:10:00,65.8,16.9,29.91,North,0,0.0,8.5,15,0.00,,,0.00,WSDL version 420,2013-03-28 18:10:00,
2013-03-28 13:16:00,66.0,17.1,29.91,SE,135,4.1,5.8,15,0.00,,,0.00,WSDL version 420,2013-03-28 18:16:00,
2013-03-28 13:22:00,65.9,17.0,29.91,East,101,1.6,4.3,15,0.00,,,0.00,WSDL version 420,2013-03-28 18:22:00,
2013-03-28 13:28:00,65.8,16.9,29.91,South,180,1.3,2.7,15,0.00,,,0.00,WSDL version 420,2013-03-28 18:28:00,
2013-03-28 13:34:00,66.2,17.2,29.91,West,270,4.9,5.8,15,0.00,,,0.00,WSDL version 420,2013-03-28 18:34:00,
2013-03-28 13:40:00,66.2,17.2,29.91,SSE,158,3.6,5.8,15,0.00,,,0.00,WSDL version 420,2013-03-28 18:40:00,
2013-03-28 13:46:00,66.8,17.7,29.91,East,90,0.9,4.0,15,0.00,,,0.00,WSDL version 420,2013-03-28 18:46:00,
2013-03-28 13:52:00,67.8,18.5,29.91,ESE,107,4.0,5.6,15,0.00,,,0.00,WSDL version 420,2013-03-28 18:52:00,
2013-03-28 13:58:00,68.3,18.9,29.88,SE,131,0.4,4.9,15,0.00,,,0.00,WSDL version 420,2013-03-28 18:58:00,
2013-03-28 14:04:00,68.5,19.1,29.88,SSE,158,4.3,7.8,15,0.00,,,0.00,WSDL version 420,2013-03-28 19:04:00,
2013-03-28 14:10:00,68.5,19.0,29.88,SSW,203,4.1,7.8,15,0.00,,,0.00,WSDL version 420,2013-03-28 19:10:00,
2013-03-28 14:16:00,67.9,18.6,29.88,SW,225,2.2,5.4,15,0.00,,,0.00,WSDL version 420,2013-03-28 19:16:00,
2013-03-28 14:22:00,67.8,18.5,29.88,South,174,2.5,5.4,15,0.00,,,0.00,WSDL version 420,2013-03-28 19:22:00,
2013-03-28 14:28:00,68.0,18.7,29.88,West,270,3.6,4.9,15,0.00,,,0.00,WSDL version 420,2013-03-28 19:28:00,
2013-03-28 14:34:00,67.9,18.6,29.88,NW,315,3.1,5.8,15,0.00,,,0.00,WSDL version 420,2013-03-28 19:34:00,
2013-03-28 14:40:00,67.8,18.5,29.88,West,270,3.6,4.0,15,0.00,,,0.00,WSDL version 420,2013-03-28 19:40:00,
2013-03-28 14:47:00,67.8,18.5,29.88,North,-999,-999.0,-999.0,15,0.00,,,0.00,WSDL version 420,2013-03-28 19:47:00,
2013-03-28 14:52:00,67.9,18.6,29.88,South,174,3.1,4.7,15,0.00,,,0.00,WSDL version 420,2013-03-28 19:52:00,
2013-03-28 14:58:00,67.8,18.5,29.88,West,270,5.8,5.8,15,0.00,,,0.00,WSDL version 420,2013-03-28 19:58:00,
2013-03-28 15:04:00,67.8,18.5,29.88,NE,45,2.7,6.3,15,0.00,,,0.00,WSDL version 420,2013-03-28 20:04:00,
2013-03-28 15:10:00,68.1,18.7,29.88,West,270,1.3,4.0,15,0.00,,,0.00,WSDL version 420,2013-03-28 20:10:00,
2013-03-28 15:18:00,68.3,18.9,29.85,North,360,1.3,6.5,15,0.00,,,0.00,WSDL version 420,2013-03-28 20:18:00,
2013-03-28 15:24:00,69.2,19.6,29.85,SSE,158,1.8,2.9,15,0.00,,,0.00,WSDL version 420,2013-03-28 20:24:00,
2013-03-28 15:30:00,69.4,19.8,29.88,North,-999,-999.0,-999.0,15,0.00,,,0.00,WSDL version 420,2013-03-28 20:30:00,
2013-03-28 15:36:00,69.5,19.9,29.88,SW,225,3.1,8.7,15,0.00,,,0.00,WSDL version 420,2013-03-28 20:36:00,
2013-03-28 15:42:00,70.1,18.7,29.85,West,270,3.4,5.6,14,0.00,,,0.00,WSDL version 420,2013-03-28 20:42:00,
2013-03-28 15:48:00,70.4,18.9,29.85,SSE,158,4.8,7.4,14,0.00,,,0.00,WSDL version 420,2013-03-28 20:48:00,
2013-03-28 15:54:00,71.1,19.5,29.85,ESE,113,2.0,7.4,14,0.00,,,0.00,WSDL version 420,2013-03-28 20:54:00,
2013-03-28 16:00:00,71.6,19.9,29.85,South,180,0.0,4.7,14,0.00,,,0.00,WSDL version 420,2013-03-28 21:00:00,
2013-03-28 16:06:00,72.1,20.3,29.85,North,0,0.0,2.5,14,0.00,,,0.00,WSDL version 420,2013-03-28 21:06:00,
2013-03-28 16:12:00,72.1,20.3,29.85,West,270,2.0,2.5,14,0.00,,,0.00,WSDL version 420,2013-03-28 21:12:00,
2013-03-28 16:18:00,71.9,20.2,29.85,South,169,1.8,4.9,14,0.00,,,0.00,WSDL version 420,2013-03-28 21:18:00,
2013-03-28 16:24:00,71.6,19.9,29.85,SSE,158,2.5,4.9,14,0.00,,,0.00,WSDL version 420,2013-03-28 21:24:00,
2013-03-28 16:30:00,71.6,19.9,29.85,SE,135,2.9,5.6,14,0.00,,,0.00,WSDL version 420,2013-03-28 21:30:00,
2013-03-28 16:36:00,71.7,20.0,29.85,South,188,2.3,5.6,14,0.00,,,0.00,WSDL version 420,2013-03-28 21:36:00,
2013-03-28 16:42:00,71.5,19.8,29.85,SSW,195,3.7,6.0,14,0.00,,,0.00,WSDL version 420,2013-03-28 21:42:00,
2013-03-28 16:48:00,71.1,19.5,29.85,SW,225,2.7,6.3,14,0.00,,,0.00,WSDL version 420,2013-03-28 21:48:00,
2013-03-28 16:54:00,70.3,18.9,29.85,South,180,1.3,6.3,14,0.00,,,0.00,WSDL version 420,2013-03-28 21:54:00,
2013-03-28 17:00:00,70.4,19.0,29.85,SW,236,1.7,3.1,14,0.00,,,0.00,WSDL version 420,2013-03-28 22:00:00,
2013-03-28 17:06:00,69.9,19.1,29.85,West,270,4.7,5.8,15,0.00,,,0.00,WSDL version 420,2013-03-28 22:06:00,
2013-03-28 17:12:00,69.3,19.7,29.85,SW,233,3.3,6.0,15,0.00,,,0.00,WSDL version 420,2013-03-28 22:12:00,
2013-03-28 17:18:00,69.0,19.4,29.85,WSW,248,4.4,6.0,15,0.00,,,0.00,WSDL version 420,2013-03-28 22:18:00,
2013-03-28 17:24:00,68.5,19.1,29.85,SW,225,1.6,5.6,15,0.00,,,0.00,WSDL version 420,2013-03-28 22:24:00,
2013-03-28 17:30:00,68.7,19.2,29.85,West,270,1.6,4.0,15,0.00,,,0.00,WSDL version 420,2013-03-28 22:30:00,
2013-03-28 17:36:00,69.1,19.6,29.85,WNW,288,2.6,3.6,15,0.00,,,0.00,WSDL version 420,2013-03-28 22:36:00,
2013-03-28 17:42:00,69.1,19.5,29.85,South,186,1.1,4.7,15,0.00,,,0.00,WSDL version 420,2013-03-28 22:42:00,
2013-03-28 17:48:00,69.7,19.0,29.85,North,0,0.0,4.3,14,0.00,,,0.00,WSDL version 420,2013-03-28 22:48:00,
2013-03-28 17:54:00,69.4,19.8,29.85,SSE,158,1.6,4.3,15,0.00,,,0.00,WSDL version 420,2013-03-28 22:54:00,
2013-03-28 18:00:00,68.9,19.4,29.85,WSW,248,1.8,5.4,15,0.00,,,0.00,WSDL version 420,2013-03-28 23:00:00,
2013-03-28 18:06:00,68.9,19.4,29.85,South,180,3.4,5.4,15,0.00,,,0.00,WSDL version 420,2013-03-28 23:06:00,
2013-03-28 18:12:00,69.1,19.5,29.85,West,270,2.2,4.3,15,0.00,,,0.00,WSDL version 420,2013-03-28 23:12:00,
2013-03-28 18:18:00,69.1,19.5,29.85,SW,225,0.9,4.3,15,0.00,,,0.00,WSDL version 420,2013-03-28 23:18:00,
2013-03-28 18:24:00,69.2,19.6,29.85,West,270,3.2,4.0,15,0.00,,,0.00,WSDL version 420,2013-03-28 23:24:00,
2013-03-28 18:30:00,68.8,19.3,29.88,North,0,0.0,4.0,15,0.00,,,0.00,WSDL version 420,2013-03-28 23:30:00,
2013-03-28 18:36:00,68.7,19.2,29.88,West,270,1.1,3.6,15,0.00,,,0.00,WSDL version 420,2013-03-28 23:36:00,
2013-03-28 18:42:00,68.4,19.0,29.85,North,0,0.0,2.9,15,0.00,,,0.00,WSDL version 420,2013-03-28 23:42:00,
2013-03-28 18:48:00,67.3,18.1,29.85,WSW,248,2.0,4.3,15,0.00,,,0.00,WSDL version 420,2013-03-28 23:48:00,
2013-03-28 18:56:00,65.8,16.9,29.85,SW,225,0.7,2.9,15,0.00,,,0.00,WSDL version 420,2013-03-28 23:56:00,
2013-03-28 19:02:00,65.0,16.3,29.85,SW,225,0.0,2.9,15,0.00,,,0.00,WSDL version 420,2013-03-29 00:02:00,
2013-03-28 19:08:00,64.4,16.3,29.85,SW,225,0.0,1.1,16,0.00,,,0.00,WSDL version 420,2013-03-29 00:08:00,
2013-03-28 19:14:00,63.7,16.7,29.85,SW,225,0.0,0.0,16,0.00,,,0.00,WSDL version 420,2013-03-29 00:14:00,
2013-03-28 19:20:00,63.1,16.2,29.85,SW,225,0.0,0.0,16,0.00,,,0.00,WSDL version 420,2013-03-29 00:20:00,
2013-03-28 19:26:00,62.5,15.7,29.85,SSW,203,0.0,0.0,16,0.00,,,0.00,WSDL version 420,2013-03-29 00:26:00,
2013-03-28 19:32:00,62.0,15.3,29.85,South,180,0.0,0.0,16,0.00,,,0.00,WSDL version 420,2013-03-29 00:32:00,
2013-03-28 19:38:00,61.5,14.9,29.85,South,180,0.0,0.0,16,0.00,,,0.00,WSDL version 420,2013-03-29 00:38:00,
2013-03-28 19:46:00,61.1,14.6,29.85,South,180,0.0,0.0,16,0.00,,,0.00,WSDL version 420,2013-03-29 00:46:00,
2013-03-28 19:52:00,60.7,15.1,29.85,South,180,0.0,0.0,17,0.00,,,0.00,WSDL version 420,2013-03-29 00:52:00,
2013-03-28 19:58:00,60.4,15.4,29.85,South,180,0.0,0.0,17,0.00,,,0.00,WSDL version 420,2013-03-29 00:58:00,
2013-03-28 20:06:00,60.0,15.0,29.85,South,180,0.0,0.0,17,0.00,,,0.00,WSDL version 420,2013-03-29 01:06:00,
2013-03-28 20:12:00,59.7,14.8,29.85,South,180,0.0,0.0,17,0.00,,,0.00,WSDL version 420,2013-03-29 01:12:00,
2013-03-28 20:18:00,59.4,14.5,29.85,South,180,0.0,0.0,17,0.00,,,0.00,WSDL version 420,2013-03-29 01:18:00,
2013-03-28 20:26:00,59.0,14.3,29.85,South,174,0.0,0.0,17,0.00,,,0.00,WSDL version 420,2013-03-29 01:26:00,
2013-03-28 20:34:00,58.5,13.8,29.85,SSE,158,0.0,0.0,17,0.00,,,0.00,WSDL version 420,2013-03-29 01:34:00,
2013-03-28 20:40:00,58.1,13.5,29.85,SSE,158,0.0,0.0,17,0.00,,,0.00,WSDL version 420,2013-03-29 01:40:00,
2013-03-28 20:46:00,57.8,13.3,29.85,SSE,158,0.0,1.3,17,0.00,,,0.00,WSDL version 420,2013-03-29 01:46:00,
2013-03-28 20:52:00,57.1,12.7,29.85,SSE,158,0.0,1.3,17,0.00,,,0.00,WSDL version 420,2013-03-29 01:52:00,
2013-03-28 20:58:00,56.8,12.5,29.85,SSE,158,0.0,0.0,17,0.00,,,0.00,WSDL version 420,2013-03-29 01:58:00,
2013-03-28 21:04:00,56.9,12.6,29.85,SSE,158,0.0,1.6,17,0.00,,,0.00,WSDL version 420,2013-03-29 02:04:00,
2013-03-28 21:10:00,56.8,12.4,29.85,SSE,158,0.0,0.0,17,0.00,,,0.00,WSDL version 420,2013-03-29 02:10:00,
2013-03-28 21:16:00,56.7,12.3,29.85,SSE,158,0.0,0.0,17,0.00,,,0.00,WSDL version 420,2013-03-29 02:16:00,
2013-03-28 21:22:00,56.5,12.2,29.85,SSE,158,0.0,0.0,17,0.00,,,0.00,WSDL version 420,2013-03-29 02:22:00,
2013-03-28 21:28:00,56.0,11.8,29.85,SSE,158,0.0,0.0,17,0.00,,,0.00,WSDL version 420,2013-03-29 02:28:00,
2013-03-28 21:34:00,55.9,11.8,29.85,SSE,158,0.0,0.0,17,0.00,,,0.00,WSDL version 420,2013-03-29 02:34:00,
2013-03-28 21:40:00,55.8,11.6,29.85,SSE,158,0.0,0.0,17,0.00,,,0.00,WSDL version 420,2013-03-29 02:40:00,
2013-03-28 21:46:00,55.7,11.5,29.85,SSE,158,0.0,0.0,17,0.00,,,0.00,WSDL version 420,2013-03-29 02:46:00,
2013-03-28 21:52:00,55.5,11.4,29.85,SSE,158,0.0,0.0,17,0.00,,,0.00,WSDL version 420,2013-03-29 02:52:00,
2013-03-28 21:58:00,55.3,12.1,29.85,SSE,158,0.0,0.0,18,0.00,,,0.00,WSDL version 420,2013-03-29 02:58:00,
2013-03-28 22:04:00,55.1,12.3,29.85,SSE,158,0.0,0.0,18,0.00,,,0.00,WSDL version 420,2013-03-29 03:04:00,
2013-03-28 22:10:00,54.7,12.0,29.85,SSE,158,0.0,0.0,18,0.00,,,0.00,WSDL version 420,2013-03-29 03:10:00,
2013-03-28 22:16:00,54.5,11.8,29.85,SSE,158,0.0,0.0,18,0.00,,,0.00,WSDL version 420,2013-03-29 03:16:00,
2013-03-28 22:22:00,54.3,11.7,29.85,SSE,158,0.0,0.0,18,0.00,,,0.00,WSDL version 420,2013-03-29 03:22:00,
2013-03-28 22:28:00,53.9,11.4,29.85,SSE,158,0.0,0.0,18,0.00,,,0.00,WSDL version 420,2013-03-29 03:28:00,
2013-03-28 22:34:00,53.5,11.1,29.85,SSE,158,0.0,0.0,18,0.00,,,0.00,WSDL version 420,2013-03-29 03:34:00,
2013-03-28 22:40:00,53.4,11.0,29.85,SSE,158,0.0,0.0,18,0.00,,,0.00,WSDL version 420,2013-03-29 03:40:00,
2013-03-28 22:46:00,53.4,11.0,29.85,SSE,158,0.0,0.0,18,0.00,,,0.00,WSDL version 420,2013-03-29 03:46:00,
2013-03-28 22:52:00,53.1,10.7,29.85,SSE,158,1.2,3.4,18,0.00,,,0.00,WSDL version 420,2013-03-29 03:52:00,
2013-03-28 22:58:00,53.0,10.6,29.85,SSE,158,1.2,3.4,18,0.00,,,0.00,WSDL version 420,2013-03-29 03:58:00,
2013-03-28 23:01:00,53.0,10.6,29.85,SSE,158,0.0,2.2,18,0.00,,,0.00,WSDL version 420,2013-03-29 04:01:00,
2013-03-28 23:07:00,52.7,10.4,29.85,SSE,158,0.0,0.9,18,0.00,,,0.00,WSDL version 420,2013-03-29 04:07:00,
2013-03-28 23:13:00,52.3,10.1,29.85,SSE,158,0.0,2.0,18,0.00,,,0.00,WSDL version 420,2013-03-29 04:13:00,
2013-03-28 23:19:00,51.9,9.7,29.85,SSE,158,0.0,1.1,18,0.00,,,0.00,WSDL version 420,2013-03-29 04:19:00,
2013-03-28 23:22:00,51.7,10.2,29.85,South,169,0.0,2.0,19,0.00,,,0.00,WSDL version 420,2013-03-29 04:22:00,
2013-03-28 23:28:00,51.6,10.7,29.85,SSE,158,0.0,2.0,19,0.00,,,0.00,WSDL version 420,2013-03-29 04:28:00,
2013-03-28 23:34:00,51.5,10.6,29.85,SSE,158,0.0,0.0,19,0.00,,,0.00,WSDL version 420,2013-03-29 04:34:00,
2013-03-28 23:40:00,51.1,10.3,29.85,SSE,158,0.0,0.0,19,0.00,,,0.00,WSDL version 420,2013-03-29 04:40:00,
2013-03-28 23:46:00,51.0,10.6,29.85,SSE,158,0.0,0.0,19,0.00,,,0.00,WSDL version 420,2013-03-29 04:46:00,
2013-03-28 23:52:00,50.7,11.8,29.85,SSE,158,0.0,0.0,21,0.00,,,0.00,WSDL version 420,2013-03-29 04:52:00,
2013-03-28 23:58:00,50.5,12.0,29.85,SSE,158,0.0,0.0,21,0.00,,,0.00,WSDL version 420,2013-03-29 04:58:00,